createdAt,value
2022-10-25T00:01:45.984Z,26.33
2022-10-25T00:04:13.405Z,9.07
2022-10-25T00:06:40.241Z,16.55
2022-10-25T00:09:09.714Z,19.30
2022-10-25T00:11:36.473Z,23.35
2022-10-25T00:14:07.235Z,20.85
2022-10-25T00:16:37.018Z,27.98
2022-10-25T00:19:05.176Z,45.72
2022-10-25T00:21:34.046Z,29.30
2022-10-25T00:24:00.763Z,43.80
2022-10-25T00:26:29.998Z,7.05
2022-10-25T00:28:59.000Z,42.20
2022-10-25T00:31:25.783Z,59.75
2022-10-25T00:33:54.909Z,38.20
2022-10-25T00:36:26.664Z,109.30
2022-10-25T00:38:57.853Z,92.20
2022-10-25T00:41:28.080Z,41.43
2022-10-25T00:43:57.770Z,60.55
2022-10-25T00:46:32.037Z,25.08
2022-10-25T00:49:13.695Z,28.08
2022-10-25T00:51:53.821Z,12.15
2022-10-25T00:54:45.125Z,9.90
2022-10-25T00:57:47.051Z,25.13
2022-10-25T01:00:16.551Z,11.45
2022-10-25T01:02:46.150Z,14.20
2022-10-25T01:05:13.428Z,7.97
2022-10-25T01:07:40.218Z,6.60
2022-10-25T01:10:07.222Z,8.63
2022-10-25T01:12:34.446Z,13.35
2022-10-25T01:15:02.706Z,7.82
2022-10-25T01:18:07.564Z,6.18
2022-10-25T01:21:00.574Z,10.07
2022-10-25T01:23:45.227Z,3.83
2022-10-25T01:26:26.249Z,10.57
2022-10-25T01:29:10.484Z,7.45
2022-10-25T01:32:07.668Z,6.68
2022-10-25T01:35:01.495Z,4.10
2022-10-25T01:37:43.697Z,7.80
2022-10-25T01:40:28.453Z,5.75
2022-10-25T01:43:52.604Z,6.35
2022-10-25T01:47:04.210Z,7.00
2022-10-25T01:50:02.358Z,3.75
2022-10-25T01:52:29.031Z,2.88
2022-10-25T01:54:55.679Z,3.20
2022-10-25T01:57:33.688Z,3.88
2022-10-25T02:00:12.329Z,6.93
2022-10-25T02:02:47.670Z,4.57
2022-10-25T02:05:29.541Z,8.20
2022-10-25T02:08:35.760Z,2.40
2022-10-25T02:11:05.192Z,6.40
2022-10-25T02:13:46.944Z,4.05
2022-10-25T02:16:25.940Z,4.75
2022-10-25T02:19:03.805Z,5.28
2022-10-25T02:21:36.760Z,4.75
2022-10-25T02:24:16.720Z,4.35
2022-10-25T02:26:45.001Z,4.30
2022-10-25T02:29:12.922Z,6.70
2022-10-25T02:31:42.477Z,4.85
2022-10-25T02:34:09.297Z,15.68
2022-10-25T02:36:36.260Z,12.40
2022-10-25T02:39:05.419Z,6.18
2022-10-25T02:41:32.270Z,11.23
2022-10-25T02:47:42.249Z,9.85
2022-10-25T02:50:09.464Z,16.63
2022-10-25T02:52:38.554Z,10.30
2022-10-25T02:55:05.833Z,7.25
2022-10-25T02:57:36.971Z,13.77
2022-10-25T03:00:06.191Z,6.50
2022-10-25T03:02:32.987Z,5.38
2022-10-25T03:04:59.673Z,1.90
2022-10-25T03:07:26.374Z,6.22
2022-10-25T03:09:53.091Z,4.22
2022-10-25T03:12:19.752Z,5.65
2022-10-25T03:14:48.897Z,7.80
2022-10-25T03:17:17.865Z,7.88
2022-10-25T03:19:46.696Z,7.30
2022-10-25T03:22:18.112Z,7.22
2022-10-25T03:24:44.774Z,5.95
2022-10-25T03:27:13.840Z,9.23
2022-10-25T03:29:40.543Z,9.35
2022-10-25T03:32:07.758Z,3.55
2022-10-25T03:34:34.620Z,5.07
2022-10-25T03:37:01.369Z,5.40
2022-10-25T03:39:28.103Z,6.60
2022-10-25T03:41:56.921Z,2.20
2022-10-25T03:44:23.669Z,9.18
2022-10-25T03:46:50.360Z,4.82
2022-10-25T03:49:21.727Z,10.25
2022-10-25T03:51:51.149Z,9.90
2022-10-25T03:54:23.310Z,9.20
2022-10-25T03:56:52.234Z,6.15
2022-10-25T03:59:21.309Z,8.85
2022-10-25T04:01:50.293Z,9.77
2022-10-25T04:04:17.148Z,6.88
2022-10-25T04:06:43.924Z,5.88
2022-10-25T04:09:10.678Z,3.67
2022-10-25T04:11:39.561Z,5.65
2022-10-25T04:14:08.511Z,7.85
2022-10-25T04:16:39.824Z,10.07
2022-10-25T04:19:06.871Z,6.72
2022-10-25T04:21:38.299Z,5.45
2022-10-25T04:24:05.369Z,6.65
2022-10-25T04:26:34.827Z,6.00
2022-10-25T04:29:04.219Z,3.35
2022-10-25T04:31:31.511Z,3.95
2022-10-25T04:34:00.408Z,5.55
2022-10-25T04:36:30.448Z,6.75
2022-10-25T04:38:59.519Z,4.68
2022-10-25T04:41:28.400Z,7.50
2022-10-25T04:43:57.730Z,11.85
2022-10-25T04:46:26.721Z,5.18
2022-10-25T04:48:53.521Z,4.45
2022-10-25T04:51:20.198Z,3.70
2022-10-25T04:53:46.876Z,8.45
2022-10-25T04:56:16.761Z,8.43
2022-10-25T04:58:43.458Z,9.55
2022-10-25T05:01:15.669Z,9.40
2022-10-25T05:03:44.692Z,19.20
2022-10-25T05:06:25.411Z,3.78
2022-10-25T05:08:53.175Z,5.57
2022-10-25T05:11:27.268Z,4.47
2022-10-25T05:13:54.022Z,11.73
2022-10-25T05:16:24.995Z,3.97
2022-10-25T05:18:56.841Z,7.40
2022-10-25T05:21:28.387Z,3.05
2022-10-25T05:24:01.500Z,4.25
2022-10-25T05:26:32.855Z,8.77
2022-10-25T05:28:59.605Z,7.05
2022-10-25T05:31:28.739Z,5.88
2022-10-25T05:34:00.998Z,8.82
2022-10-25T05:36:29.425Z,7.35
2022-10-25T05:38:56.620Z,8.65
2022-10-25T05:41:25.633Z,6.78
2022-10-25T05:43:52.461Z,4.82
2022-10-25T05:46:21.859Z,3.60
2022-10-25T05:48:51.890Z,6.38
2022-10-25T05:51:32.953Z,8.18
2022-10-25T05:54:09.279Z,3.30
2022-10-25T05:56:36.658Z,3.95
2022-10-25T05:59:15.860Z,9.48
2022-10-25T06:01:45.251Z,4.68
2022-10-25T06:04:15.849Z,4.50
2022-10-25T06:06:44.548Z,4.38
2022-10-25T06:09:11.929Z,5.20
2022-10-25T06:11:39.608Z,5.85
2022-10-25T06:14:06.800Z,5.35
2022-10-25T06:16:33.721Z,4.15
2022-10-25T06:19:00.484Z,7.50
2022-10-25T06:21:29.302Z,5.32
2022-10-25T06:24:01.722Z,6.50
2022-10-25T06:26:30.045Z,4.25
2022-10-25T06:29:04.572Z,6.10
2022-10-25T06:31:32.904Z,5.90
2022-10-25T06:34:04.704Z,4.75
2022-10-25T06:36:31.883Z,6.70
2022-10-25T06:39:05.212Z,7.88
2022-10-25T06:41:34.125Z,5.93
2022-10-25T06:44:06.539Z,10.13
2022-10-25T06:46:57.921Z,6.88
2022-10-25T06:49:23.015Z,15.48
2022-10-25T06:51:49.683Z,29.20
2022-10-25T06:54:18.806Z,20.08
2022-10-25T06:56:48.311Z,19.23
2022-10-25T06:59:14.999Z,10.75
2022-10-25T07:01:44.233Z,7.70
2022-10-25T07:04:13.543Z,7.40
2022-10-25T07:06:43.288Z,6.35
2022-10-25T07:09:12.412Z,7.15
2022-10-25T07:11:42.304Z,8.13
2022-10-25T07:14:09.472Z,9.63
2022-10-25T07:16:39.649Z,8.27
2022-10-25T07:19:06.442Z,8.30
2022-10-25T07:21:35.403Z,7.95
2022-10-25T07:24:08.897Z,23.52
2022-10-25T07:26:36.706Z,62.92
2022-10-25T07:29:04.754Z,77.70
2022-10-25T07:31:37.314Z,72.68
2022-10-25T07:34:05.650Z,39.72
2022-10-25T07:36:32.451Z,12.77
2022-10-25T07:39:01.697Z,23.38
2022-10-25T07:41:28.564Z,15.18
2022-10-25T07:43:55.502Z,19.60
2022-10-25T07:46:24.761Z,16.30
2022-10-25T07:48:52.573Z,12.00
2022-10-25T07:51:22.188Z,20.05
2022-10-25T07:53:53.010Z,12.95
2022-10-25T07:56:23.351Z,13.55
2022-10-25T07:58:52.193Z,10.95
2022-10-25T08:01:22.086Z,14.73
2022-10-25T08:03:51.641Z,7.00
2022-10-25T08:06:19.337Z,10.85
2022-10-25T08:08:48.680Z,7.82
2022-10-25T08:11:18.136Z,12.25
2022-10-25T08:13:47.609Z,7.88
2022-10-25T08:16:14.281Z,5.03
2022-10-25T08:18:44.900Z,11.23
2022-10-25T08:21:11.730Z,13.00
2022-10-25T08:23:38.570Z,11.18
2022-10-25T08:26:07.524Z,17.48
2022-10-25T08:28:34.311Z,15.57
2022-10-25T08:31:04.189Z,17.70
2022-10-25T08:33:36.109Z,15.35
2022-10-25T08:36:03.394Z,15.80
2022-10-25T08:38:30.687Z,20.17
2022-10-25T08:40:57.388Z,16.50
2022-10-25T08:44:04.573Z,12.88
2022-10-25T08:46:53.896Z,16.63
2022-10-25T08:49:49.530Z,20.77
2022-10-25T08:52:33.446Z,21.88
2022-10-25T08:55:06.024Z,17.75
2022-10-25T08:57:38.062Z,8.20
2022-10-25T09:00:12.414Z,11.73
2022-10-25T09:02:59.799Z,6.65
2022-10-25T09:05:52.216Z,9.93
2022-10-25T09:08:33.876Z,6.07
2022-10-25T09:11:22.378Z,7.50
2022-10-25T09:13:49.970Z,10.50
2022-10-25T09:16:28.604Z,6.28
2022-10-25T09:18:57.188Z,5.97
2022-10-25T09:21:48.275Z,5.68
2022-10-25T09:24:36.483Z,4.95
2022-10-25T09:27:07.511Z,7.18
2022-10-25T09:29:40.635Z,2.85
2022-10-25T09:32:21.929Z,8.25
2022-10-25T09:34:50.986Z,4.20
2022-10-25T09:37:23.548Z,4.47
2022-10-25T09:39:54.469Z,2.28
2022-10-25T09:42:44.671Z,5.13
2022-10-25T09:45:47.216Z,4.85
2022-10-25T09:48:17.078Z,4.80
2022-10-25T09:51:00.824Z,3.45
2022-10-25T09:53:31.644Z,4.00
2022-10-25T09:56:02.523Z,7.28
2022-10-25T09:58:30.602Z,4.50
2022-10-25T10:01:00.813Z,4.05
2022-10-25T10:03:33.356Z,5.40
2022-10-25T10:06:22.710Z,4.18
2022-10-25T10:09:12.602Z,3.13
2022-10-25T10:11:44.947Z,4.13
2022-10-25T10:14:38.011Z,5.88
2022-10-25T10:17:07.143Z,4.30
2022-10-25T10:19:33.854Z,3.22
2022-10-25T10:22:01.734Z,2.83
2022-10-25T10:24:29.467Z,4.95
2022-10-25T10:26:59.811Z,3.50
2022-10-25T10:29:31.935Z,4.63
2022-10-25T10:32:05.149Z,4.07
2022-10-25T10:34:33.301Z,4.30
2022-10-25T10:37:24.844Z,4.05
2022-10-25T10:40:05.846Z,3.38
2022-10-25T10:42:32.629Z,2.88
2022-10-25T10:45:08.737Z,3.88
2022-10-25T10:47:48.383Z,4.03
2022-10-25T10:50:24.531Z,2.00
2022-10-25T10:53:13.701Z,2.10
2022-10-25T10:55:50.523Z,3.45
2022-10-25T10:58:35.495Z,3.25
2022-10-25T11:01:05.752Z,4.65
2022-10-25T11:04:00.912Z,1.92
2022-10-25T11:06:33.653Z,10.00
2022-10-25T11:09:12.572Z,1.77
2022-10-25T11:11:40.487Z,2.58
2022-10-25T11:14:13.590Z,3.45
2022-10-25T11:17:09.371Z,2.00
2022-10-25T11:19:55.850Z,4.50
2022-10-25T11:22:35.727Z,3.03
2022-10-25T11:25:23.780Z,1.42
2022-10-25T11:28:02.674Z,1.50
2022-10-25T11:30:38.250Z,2.53
2022-10-25T11:33:23.211Z,2.38
2022-10-25T11:36:14.657Z,1.20
2022-10-25T11:38:51.422Z,1.87
2022-10-25T11:41:26.923Z,2.78
2022-10-25T11:44:17.831Z,1.90
2022-10-25T11:46:58.437Z,5.55
2022-10-25T11:50:08.779Z,2.95
2022-10-25T11:53:00.523Z,2.55
2022-10-25T11:55:44.817Z,1.23
2022-10-25T11:58:29.509Z,3.40
2022-10-25T12:01:06.517Z,3.83
2022-10-25T12:03:57.622Z,2.38
2022-10-25T12:06:36.566Z,2.63
2022-10-25T12:09:28.836Z,3.28
2022-10-25T12:14:44.744Z,2.33
2022-10-25T12:17:27.643Z,1.95
2022-10-25T12:19:59.872Z,5.13
2022-10-25T12:22:33.623Z,2.63
2022-10-25T12:25:10.234Z,2.97
2022-10-25T12:27:37.325Z,3.17
2022-10-25T12:30:13.898Z,4.53
2022-10-25T12:32:42.790Z,2.33
2022-10-25T12:35:22.363Z,2.53
2022-10-25T12:38:00.361Z,2.00
2022-10-25T12:40:29.691Z,2.83
2022-10-25T12:43:05.688Z,3.45
2022-10-25T12:45:44.570Z,5.00
2022-10-25T12:48:49.400Z,2.58
2022-10-25T12:51:22.012Z,3.72
2022-10-25T12:54:30.932Z,2.38
2022-10-25T12:57:17.722Z,2.35
2022-10-25T12:59:49.953Z,2.05
2022-10-25T13:02:30.796Z,2.33
2022-10-25T13:05:33.256Z,2.10
2022-10-25T13:10:33.954Z,3.30
2022-10-25T13:13:07.855Z,2.90
2022-10-25T13:15:47.982Z,3.03
2022-10-25T13:18:34.941Z,1.23
2022-10-25T13:21:14.686Z,1.88
2022-10-25T13:23:51.355Z,1.52
2022-10-25T13:26:20.163Z,3.22
2022-10-25T13:28:48.465Z,2.10
2022-10-25T13:31:35.476Z,2.15
2022-10-25T13:34:14.324Z,1.58
2022-10-25T13:36:54.267Z,1.45
2022-10-25T13:39:44.450Z,2.20
2022-10-25T13:42:27.595Z,2.25
2022-10-25T13:45:03.409Z,1.48
2022-10-25T13:47:50.411Z,3.20
2022-10-25T13:50:23.626Z,1.60
2022-10-25T13:53:01.772Z,4.00
2022-10-25T13:55:35.387Z,1.90
2022-10-25T13:58:25.830Z,1.63
2022-10-25T14:00:56.580Z,1.65
2022-10-25T14:03:34.849Z,2.10
2022-10-25T14:06:01.499Z,2.33
2022-10-25T14:08:51.460Z,4.20
2022-10-25T14:11:33.071Z,2.65
2022-10-25T14:14:11.974Z,3.00
2022-10-25T14:16:46.737Z,3.55
2022-10-25T14:19:20.043Z,3.63
2022-10-25T14:21:52.493Z,1.67
2022-10-25T14:24:22.696Z,2.88
2022-10-25T14:26:56.541Z,2.17
2022-10-25T14:29:25.975Z,2.50
2022-10-25T14:31:55.414Z,2.85
2022-10-25T14:34:28.451Z,1.75
2022-10-25T14:36:57.243Z,3.05
2022-10-25T14:39:26.527Z,3.08
2022-10-25T14:41:56.137Z,3.30
2022-10-25T14:44:28.604Z,2.78
2022-10-25T14:46:59.989Z,4.15
2022-10-25T14:49:27.603Z,2.38
2022-10-25T14:52:01.772Z,2.08
2022-10-25T14:54:34.515Z,2.50
2022-10-25T14:57:08.300Z,3.33
2022-10-25T14:59:50.210Z,1.98
2022-10-25T15:02:19.986Z,1.63
2022-10-25T15:04:52.086Z,2.67
2022-10-25T15:07:23.785Z,1.75
2022-10-25T15:09:52.887Z,2.72
2022-10-25T15:12:21.212Z,3.10
2022-10-25T15:14:48.458Z,3.08
2022-10-25T15:17:18.889Z,4.53
2022-10-25T15:20:04.664Z,4.95
2022-10-25T15:22:40.722Z,1.88
2022-10-25T15:25:28.084Z,1.70
2022-10-25T15:27:54.860Z,2.72
2022-10-25T15:30:45.039Z,4.03
2022-10-25T15:33:18.870Z,4.90
2022-10-25T15:35:49.582Z,3.15
2022-10-25T15:38:19.880Z,4.63
2022-10-25T15:40:48.017Z,3.83
2022-10-25T15:43:15.033Z,3.20
2022-10-25T15:45:44.563Z,5.88
2022-10-25T15:48:22.401Z,2.65
2022-10-25T15:50:55.981Z,7.75
2022-10-25T15:53:25.612Z,5.00
2022-10-25T15:55:53.680Z,6.50
2022-10-25T15:58:20.439Z,2.85
2022-10-25T16:00:52.105Z,3.25
2022-10-25T16:03:23.618Z,7.93
2022-10-25T16:05:54.855Z,6.65
2022-10-25T16:08:21.531Z,7.73
2022-10-25T16:10:48.371Z,3.70
2022-10-25T16:13:26.474Z,7.22
2022-10-25T16:15:58.371Z,8.23
2022-10-25T16:20:56.416Z,1.70
2022-10-25T16:23:24.905Z,3.70
2022-10-25T16:25:53.904Z,6.47
2022-10-25T16:28:21.001Z,3.67
2022-10-25T16:30:52.394Z,7.25
2022-10-25T16:33:19.074Z,3.97
2022-10-25T16:35:45.814Z,3.63
2022-10-25T16:38:16.541Z,6.72
2022-10-25T16:40:43.203Z,12.20
2022-10-25T16:43:14.085Z,10.13
2022-10-25T16:45:40.824Z,9.43
2022-10-25T16:48:07.548Z,2.83
2022-10-25T16:50:36.616Z,3.53
2022-10-25T16:53:11.194Z,7.60
2022-10-25T16:55:40.371Z,6.80
2022-10-25T16:58:09.903Z,9.15
2022-10-25T17:00:36.602Z,3.08
2022-10-25T17:03:03.745Z,4.63
2022-10-25T17:05:33.457Z,7.97
2022-10-25T17:08:02.441Z,4.40
2022-10-25T17:10:29.134Z,4.00
2022-10-25T17:13:03.470Z,5.55
2022-10-25T17:15:31.323Z,14.43
2022-10-25T17:18:00.849Z,5.40
2022-10-25T17:20:29.873Z,6.55
2022-10-25T17:22:57.209Z,12.20
2022-10-25T17:25:26.609Z,6.30
2022-10-25T17:27:56.480Z,4.47
2022-10-25T17:30:25.320Z,6.20
2022-10-25T17:32:54.231Z,6.45
2022-10-25T17:35:28.537Z,5.15
2022-10-25T17:37:56.719Z,5.53
2022-10-25T17:40:26.238Z,8.18
2022-10-25T17:42:52.991Z,4.78
2022-10-25T17:45:21.083Z,4.88
2022-10-25T17:47:48.119Z,2.83
2022-10-25T17:50:20.059Z,6.07
2022-10-25T17:52:46.778Z,2.67
2022-10-25T17:55:16.070Z,6.85
2022-10-25T17:57:46.884Z,5.40
2022-10-25T18:00:14.507Z,4.68
2022-10-25T18:02:50.532Z,4.25
2022-10-25T18:05:21.723Z,10.50
2022-10-25T18:07:51.683Z,1.27
2022-10-25T18:10:19.301Z,3.42
2022-10-25T18:12:46.483Z,6.47
2022-10-25T18:15:15.848Z,7.35
2022-10-25T18:17:43.123Z,7.85
2022-10-25T18:20:13.002Z,3.08
2022-10-25T18:22:44.390Z,5.32
2022-10-25T18:25:11.576Z,6.50
2022-10-25T18:27:38.470Z,4.43
2022-10-25T18:30:05.691Z,6.82
2022-10-25T18:32:35.401Z,4.13
2022-10-25T18:35:05.407Z,6.65
2022-10-25T18:37:34.314Z,6.85
2022-10-25T18:40:01.036Z,10.23
2022-10-25T18:42:27.743Z,4.97
2022-10-25T18:44:55.366Z,4.45
2022-10-25T18:47:24.487Z,8.70
2022-10-25T18:49:51.256Z,5.40
2022-10-25T18:52:18.088Z,7.40
2022-10-25T18:54:47.028Z,8.00
2022-10-25T18:57:15.942Z,10.40
2022-10-25T18:59:42.703Z,3.67
2022-10-25T19:02:11.108Z,5.15
2022-10-25T19:04:37.966Z,5.50
2022-10-25T19:07:11.749Z,4.63
2022-10-25T19:09:40.929Z,6.03
2022-10-25T19:12:07.699Z,8.15
2022-10-25T19:14:36.736Z,6.03
2022-10-25T19:17:03.484Z,4.07
2022-10-25T19:19:30.315Z,3.42
2022-10-25T19:21:58.351Z,4.15
2022-10-25T19:24:25.101Z,6.07
2022-10-25T19:26:56.029Z,7.13
2022-10-25T19:29:22.716Z,6.43
2022-10-25T19:31:52.029Z,5.18
2022-10-25T19:34:18.890Z,5.93
2022-10-25T19:36:45.627Z,7.03
2022-10-25T19:39:14.796Z,9.30
2022-10-25T19:41:44.115Z,4.90
2022-10-25T19:44:11.068Z,4.32
2022-10-25T19:46:37.738Z,7.80
2022-10-25T19:49:07.037Z,8.52
2022-10-25T19:51:33.738Z,11.85
2022-10-25T19:54:00.517Z,11.05
2022-10-25T19:56:27.267Z,8.00
2022-10-25T19:58:54.195Z,8.20
2022-10-25T20:01:24.929Z,7.63
2022-10-25T20:03:57.999Z,6.63
2022-10-25T20:06:31.604Z,8.23
2022-10-25T20:08:59.875Z,4.13
2022-10-25T20:11:28.588Z,7.03
2022-10-25T20:13:57.435Z,6.25
2022-10-25T20:16:25.447Z,4.93
2022-10-25T20:18:52.931Z,7.53
2022-10-25T20:21:22.330Z,11.52
2022-10-25T20:23:56.964Z,7.03
2022-10-25T20:26:34.965Z,7.72
2022-10-25T20:29:04.200Z,5.78
2022-10-25T20:31:32.734Z,3.90
2022-10-25T20:34:02.420Z,3.05
2022-10-25T20:36:30.697Z,6.65
2022-10-25T20:38:57.468Z,3.95
2022-10-25T20:41:30.615Z,6.13
2022-10-25T20:44:08.661Z,6.50
2022-10-25T20:46:36.277Z,7.90
2022-10-25T20:49:05.840Z,4.68
2022-10-25T20:51:32.754Z,4.70
2022-10-25T20:53:59.596Z,4.63
2022-10-25T20:56:26.479Z,6.30
2022-10-25T20:58:53.350Z,7.00
2022-10-25T21:01:23.122Z,3.55
2022-10-25T21:03:50.059Z,5.53
2022-10-25T21:06:16.983Z,4.95
2022-10-25T21:08:43.695Z,7.38
2022-10-25T21:11:12.809Z,9.73
2022-10-25T21:13:39.651Z,12.15
2022-10-25T21:16:11.177Z,4.90
2022-10-25T21:18:40.441Z,8.25
2022-10-25T21:21:14.209Z,6.47
2022-10-25T21:23:44.768Z,7.18
2022-10-25T21:26:11.577Z,11.10
2022-10-25T21:28:40.050Z,8.73
2022-10-25T21:31:12.674Z,8.55
2022-10-25T21:33:43.030Z,8.80
2022-10-25T21:36:15.939Z,5.95
2022-10-25T21:38:45.274Z,6.38
2022-10-25T21:41:13.247Z,8.38
2022-10-25T21:43:45.392Z,7.93
2022-10-25T21:46:13.306Z,9.10
2022-10-25T21:48:43.843Z,4.63
2022-10-25T21:51:13.407Z,5.95
2022-10-25T21:53:40.547Z,6.43
2022-10-25T21:56:18.364Z,7.18
2022-10-25T21:58:50.821Z,7.45
2022-10-25T22:01:22.949Z,10.13
2022-10-25T22:03:49.747Z,6.22
2022-10-25T22:06:22.032Z,5.43
2022-10-25T22:08:49.581Z,5.10
2022-10-25T22:11:19.364Z,8.23
2022-10-25T22:13:47.486Z,7.35
2022-10-25T22:16:22.063Z,4.80
2022-10-25T22:18:57.620Z,6.60
2022-10-25T22:21:26.160Z,6.65
2022-10-25T22:23:55.340Z,3.85
2022-10-25T22:26:22.650Z,3.53
2022-10-25T22:28:53.944Z,5.85
2022-10-25T22:31:21.481Z,5.18
2022-10-25T22:34:03.221Z,5.68
2022-10-25T22:36:34.836Z,6.22
2022-10-25T22:39:05.039Z,4.40
2022-10-25T22:41:32.458Z,4.90
2022-10-25T22:44:04.126Z,5.28
2022-10-25T22:46:35.168Z,3.38
2022-10-25T22:49:08.991Z,7.43
2022-10-25T22:51:36.645Z,3.53
2022-10-25T22:54:03.476Z,5.50
2022-10-25T22:56:33.337Z,4.00
2022-10-25T22:59:02.694Z,5.13
2022-10-25T23:01:31.679Z,8.00
2022-10-25T23:03:59.465Z,4.93
2022-10-25T23:06:31.653Z,4.70
2022-10-25T23:09:01.016Z,7.85
2022-10-25T23:11:35.525Z,5.38
2022-10-25T23:14:05.403Z,9.40
2022-10-25T23:16:36.817Z,5.78
2022-10-25T23:19:03.626Z,5.78
2022-10-25T23:21:35.670Z,7.55
2022-10-25T23:26:33.539Z,4.25
2022-10-25T23:29:04.159Z,7.55
2022-10-25T23:31:31.007Z,4.60
2022-10-25T23:33:59.720Z,6.32
2022-10-25T23:36:29.085Z,9.80
2022-10-25T23:38:56.566Z,6.38
2022-10-25T23:41:23.435Z,4.40
2022-10-25T23:43:50.366Z,7.80
2022-10-25T23:46:17.216Z,8.40
2022-10-25T23:48:44.071Z,4.25
2022-10-25T23:51:15.187Z,3.47
2022-10-25T23:53:42.811Z,6.17
2022-10-25T23:56:13.410Z,7.70
2022-10-25T23:58:42.685Z,5.07
